sensor_id;sensor_type;location;lat;lon;timestamp;temperature;humidity
20496;DHT22;10406;54.132;17.968;2022-09-09T00:02:26;14.90;99.90
20496;DHT22;10406;54.132;17.968;2022-09-09T00:08:02;14.90;99.90
20496;DHT22;10406;54.132;17.968;2022-09-09T00:13:37;14.90;99.90
20496;DHT22;10406;54.132;17.968;2022-09-09T00:19:23;14.90;99.90
20496;DHT22;10406;54.132;17.968;2022-09-09T00:24:56;15.80;99.90
20496;DHT22;10406;54.132;17.968;2022-09-09T00:30:34;15.00;99.90
20496;DHT22;10406;54.132;17.968;2022-09-09T00:36:24;15.00;99.90
20496;DHT22;10406;54.132;17.968;2022-09-09T00:42:30;14.90;99.90
20496;DHT22;10406;54.132;17.968;2022-09-09T00:48:06;14.90;99.90
20496;DHT22;10406;54.132;17.968;2022-09-09T00:54:01;14.90;99.90
20496;DHT22;10406;54.132;17.968;2022-09-09T00:59:45;14.90;99.90
20496;DHT22;10406;54.132;17.968;2022-09-09T01:11:55;14.90;99.90
20496;DHT22;10406;54.132;17.968;2022-09-09T01:17:26;14.90;99.90
20496;DHT22;10406;54.132;17.968;2022-09-09T01:23:10;14.80;99.90
20496;DHT22;10406;54.132;17.968;2022-09-09T01:28:54;15.00;99.90
20496;DHT22;10406;54.132;17.968;2022-09-09T01:34:24;14.90;99.90
20496;DHT22;10406;54.132;17.968;2022-09-09T01:40:00;14.70;99.90
20496;DHT22;10406;54.132;17.968;2022-09-09T01:45:34;14.50;99.90
20496;DHT22;10406;54.132;17.968;2022-09-09T01:51:05;14.40;99.90
20496;DHT22;10406;54.132;17.968;2022-09-09T01:56:40;14.10;99.90
20496;DHT22;10406;54.132;17.968;2022-09-09T02:02:21;13.90;99.90
20496;DHT22;10406;54.132;17.968;2022-09-09T02:08:21;13.70;99.90
20496;DHT22;10406;54.132;17.968;2022-09-09T02:13:46;13.50;99.90
20496;DHT22;10406;54.132;17.968;2022-09-09T02:19:12;13.40;99.90
20496;DHT22;10406;54.132;17.968;2022-09-09T02:24:38;13.30;99.90
20496;DHT22;10406;54.132;17.968;2022-09-09T02:30:04;13.10;99.90
20496;DHT22;10406;54.132;17.968;2022-09-09T02:42:03;13.00;99.90
20496;DHT22;10406;54.132;17.968;2022-09-09T02:47:29;13.00;99.90
20496;DHT22;10406;54.132;17.968;2022-09-09T02:53:05;13.00;99.90
20496;DHT22;10406;54.132;17.968;2022-09-09T02:58:33;13.00;99.90
20496;DHT22;10406;54.132;17.968;2022-09-09T03:03:55;13.00;99.90
20496;DHT22;10406;54.132;17.968;2022-09-09T03:23:25;12.90;99.90
20496;DHT22;10406;54.132;17.968;2022-09-09T03:28:49;12.70;99.90
20496;DHT22;10406;54.132;17.968;2022-09-09T03:34:14;12.60;99.90
20496;DHT22;10406;54.132;17.968;2022-09-09T03:39:36;12.50;99.90
20496;DHT22;10406;54.132;17.968;2022-09-09T03:44:57;12.50;99.90
20496;DHT22;10406;54.132;17.968;2022-09-09T03:50:53;12.50;99.90
20496;DHT22;10406;54.132;17.968;2022-09-09T03:56:16;12.60;99.90
20496;DHT22;10406;54.132;17.968;2022-09-09T04:01:38;12.50;99.90
20496;DHT22;10406;54.132;17.968;2022-09-09T04:07:02;12.40;99.90
20496;DHT22;10406;54.132;17.968;2022-09-09T04:12:28;12.30;99.90
20496;DHT22;10406;54.132;17.968;2022-09-09T04:32:08;12.30;99.90
20496;DHT22;10406;54.132;17.968;2022-09-09T04:37:29;12.30;99.90
20496;DHT22;10406;54.132;17.968;2022-09-09T04:42:50;12.30;99.90
20496;DHT22;10406;54.132;17.968;2022-09-09T04:48:12;12.20;99.90
20496;DHT22;10406;54.132;17.968;2022-09-09T04:54:05;12.30;99.90
20496;DHT22;10406;54.132;17.968;2022-09-09T05:00:04;12.30;99.90
20496;DHT22;10406;54.132;17.968;2022-09-09T05:05:27;12.30;99.90
20496;DHT22;10406;54.132;17.968;2022-09-09T05:10:48;12.40;99.90
20496;DHT22;10406;54.132;17.968;2022-09-09T05:16:44;12.50;99.90
20496;DHT22;10406;54.132;17.968;2022-09-09T05:22:08;12.40;99.90
20496;DHT22;10406;54.132;17.968;2022-09-09T05:27:34;12.40;99.90
20496;DHT22;10406;54.132;17.968;2022-09-09T05:32:58;12.50;99.90
20496;DHT22;10406;54.132;17.968;2022-09-09T05:38:21;12.50;99.90
20496;DHT22;10406;54.132;17.968;2022-09-09T05:43:44;12.50;99.90
20496;DHT22;10406;54.132;17.968;2022-09-09T05:49:06;12.40;99.90
20496;DHT22;10406;54.132;17.968;2022-09-09T05:54:29;12.40;99.90
20496;DHT22;10406;54.132;17.968;2022-09-09T05:59:50;12.50;99.90
20496;DHT22;10406;54.132;17.968;2022-09-09T06:05:12;12.50;99.90
20496;DHT22;10406;54.132;17.968;2022-09-09T06:10:34;12.50;99.90
20496;DHT22;10406;54.132;17.968;2022-09-09T06:15:56;12.50;99.90
20496;DHT22;10406;54.132;17.968;2022-09-09T06:21:19;12.60;99.90
20496;DHT22;10406;54.132;17.968;2022-09-09T06:26:51;12.50;99.90
20496;DHT22;10406;54.132;17.968;2022-09-09T06:32:15;12.50;99.90
20496;DHT22;10406;54.132;17.968;2022-09-09T06:37:45;12.60;99.90
20496;DHT22;10406;54.132;17.968;2022-09-09T06:43:09;12.60;99.90
20496;DHT22;10406;54.132;17.968;2022-09-09T06:48:30;12.70;99.90
20496;DHT22;10406;54.132;17.968;2022-09-09T06:53:56;12.80;99.90
20496;DHT22;10406;54.132;17.968;2022-09-09T06:59:19;12.80;99.90
20496;DHT22;10406;54.132;17.968;2022-09-09T07:04:40;12.90;99.90
20496;DHT22;10406;54.132;17.968;2022-09-09T07:10:30;13.10;99.90
20496;DHT22;10406;54.132;17.968;2022-09-09T07:16:15;13.00;99.90
20496;DHT22;10406;54.132;17.968;2022-09-09T07:21:45;13.10;99.90
20496;DHT22;10406;54.132;17.968;2022-09-09T07:27:06;13.10;99.90
20496;DHT22;10406;54.132;17.968;2022-09-09T07:32:31;13.10;99.90
20496;DHT22;10406;54.132;17.968;2022-09-09T07:37:52;13.10;99.90
20496;DHT22;10406;54.132;17.968;2022-09-09T07:43:33;13.10;99.90
20496;DHT22;10406;54.132;17.968;2022-09-09T07:48:56;13.10;99.90
20496;DHT22;10406;54.132;17.968;2022-09-09T07:54:19;13.10;99.90
20496;DHT22;10406;54.132;17.968;2022-09-09T07:59:43;13.10;99.90
20496;DHT22;10406;54.132;17.968;2022-09-09T08:05:06;13.20;99.90
20496;DHT22;10406;54.132;17.968;2022-09-09T08:17:41;13.30;99.90
20496;DHT22;10406;54.132;17.968;2022-09-09T08:23:03;13.30;99.90
20496;DHT22;10406;54.132;17.968;2022-09-09T08:28:25;13.20;99.90
20496;DHT22;10406;54.132;17.968;2022-09-09T08:33:47;13.20;99.90
20496;DHT22;10406;54.132;17.968;2022-09-09T08:39:12;13.10;99.90
20496;DHT22;10406;54.132;17.968;2022-09-09T08:44:55;13.10;99.90
20496;DHT22;10406;54.132;17.968;2022-09-09T08:50:45;13.20;99.90
20496;DHT22;10406;54.132;17.968;2022-09-09T08:56:16;13.30;99.90
20496;DHT22;10406;54.132;17.968;2022-09-09T09:01:58;13.30;99.90
20496;DHT22;10406;54.132;17.968;2022-09-09T09:07:31;13.50;99.90
20496;DHT22;10406;54.132;17.968;2022-09-09T09:13:03;13.50;99.90
20496;DHT22;10406;54.132;17.968;2022-09-09T09:18:40;13.50;99.90
20496;DHT22;10406;54.132;17.968;2022-09-09T09:24:04;13.70;99.90
20496;DHT22;10406;54.132;17.968;2022-09-09T09:29:30;13.90;99.90
20496;DHT22;10406;54.132;17.968;2022-09-09T09:34:58;14.30;99.90
20496;DHT22;10406;54.132;17.968;2022-09-09T09:40:26;14.30;99.90
20496;DHT22;10406;54.132;17.968;2022-09-09T09:45:52;14.30;99.90
20496;DHT22;10406;54.132;17.968;2022-09-09T09:51:29;14.40;99.90
20496;DHT22;10406;54.132;17.968;2022-09-09T09:56:56;14.40;99.90
20496;DHT22;10406;54.132;17.968;2022-09-09T10:02:24;14.50;99.90
20496;DHT22;10406;54.132;17.968;2022-09-09T10:08:04;14.40;99.90
20496;DHT22;10406;54.132;17.968;2022-09-09T10:13:48;14.20;99.90
20496;DHT22;10406;54.132;17.968;2022-09-09T10:19:31;14.20;99.90
20496;DHT22;10406;54.132;17.968;2022-09-09T10:25:14;14.40;99.90
20496;DHT22;10406;54.132;17.968;2022-09-09T10:30:55;14.50;99.90
20496;DHT22;10406;54.132;17.968;2022-09-09T10:36:24;14.60;99.90
20496;DHT22;10406;54.132;17.968;2022-09-09T10:41:53;14.70;99.90
20496;DHT22;10406;54.132;17.968;2022-09-09T10:47:32;14.70;99.90
20496;DHT22;10406;54.132;17.968;2022-09-09T10:53:09;14.80;99.90
20496;DHT22;10406;54.132;17.968;2022-09-09T10:58:41;14.70;99.90
20496;DHT22;10406;54.132;17.968;2022-09-09T11:04:09;14.70;99.90
20496;DHT22;10406;54.132;17.968;2022-09-09T11:09:36;14.70;99.90
20496;DHT22;10406;54.132;17.968;2022-09-09T11:15:03;14.80;99.90
20496;DHT22;10406;54.132;17.968;2022-09-09T11:20:25;14.90;99.90
20496;DHT22;10406;54.132;17.968;2022-09-09T11:25:51;14.90;99.90
20496;DHT22;10406;54.132;17.968;2022-09-09T11:31:33;14.90;99.90
20496;DHT22;10406;54.132;17.968;2022-09-09T11:37:12;14.90;99.90
20496;DHT22;10406;54.132;17.968;2022-09-09T11:42:38;14.80;99.90
20496;DHT22;10406;54.132;17.968;2022-09-09T11:48:23;14.70;99.90
20496;DHT22;10406;54.132;17.968;2022-09-09T11:54:02;14.90;99.90
20496;DHT22;10406;54.132;17.968;2022-09-09T11:59:38;15.00;99.90
20496;DHT22;10406;54.132;17.968;2022-09-09T12:05:35;15.10;99.90
20496;DHT22;10406;54.132;17.968;2022-09-09T12:11:06;15.20;99.90
20496;DHT22;10406;54.132;17.968;2022-09-09T12:16:55;15.20;99.90
20496;DHT22;10406;54.132;17.968;2022-09-09T12:22:33;15.00;99.90
20496;DHT22;10406;54.132;17.968;2022-09-09T12:28:13;14.90;99.90
20496;DHT22;10406;54.132;17.968;2022-09-09T12:33:39;14.90;99.90
20496;DHT22;10406;54.132;17.968;2022-09-09T12:39:12;15.00;99.90
20496;DHT22;10406;54.132;17.968;2022-09-09T12:44:51;15.30;99.90
20496;DHT22;10406;54.132;17.968;2022-09-09T12:50:19;15.20;99.90
20496;DHT22;10406;54.132;17.968;2022-09-09T12:56:00;15.30;99.90
20496;DHT22;10406;54.132;17.968;2022-09-09T13:08:12;15.30;99.90
20496;DHT22;10406;54.132;17.968;2022-09-09T13:14:05;15.40;99.90
20496;DHT22;10406;54.132;17.968;2022-09-09T13:19:35;15.30;99.90
20496;DHT22;10406;54.132;17.968;2022-09-09T13:25:54;15.40;99.90
20496;DHT22;10406;54.132;17.968;2022-09-09T13:31:21;15.30;99.90
20496;DHT22;10406;54.132;17.968;2022-09-09T13:42:31;15.40;99.90
20496;DHT22;10406;54.132;17.968;2022-09-09T13:47:55;15.50;99.90
20496;DHT22;10406;54.132;17.968;2022-09-09T13:53:18;15.50;99.90
20496;DHT22;10406;54.132;17.968;2022-09-09T13:58:40;15.50;99.90
20496;DHT22;10406;54.132;17.968;2022-09-09T14:04:02;15.50;99.90
20496;DHT22;10406;54.132;17.968;2022-09-09T14:09:23;15.50;99.90
20496;DHT22;10406;54.132;17.968;2022-09-09T14:15:14;15.40;99.90
20496;DHT22;10406;54.132;17.968;2022-09-09T14:27:47;15.40;99.90
20496;DHT22;10406;54.132;17.968;2022-09-09T14:33:44;15.50;99.90
20496;DHT22;10406;54.132;17.968;2022-09-09T14:39:05;15.80;99.90
20496;DHT22;10406;54.132;17.968;2022-09-09T14:44:26;16.10;99.90
20496;DHT22;10406;54.132;17.968;2022-09-09T14:49:48;16.60;99.90
20496;DHT22;10406;54.132;17.968;2022-09-09T14:55:15;17.10;99.90
20496;DHT22;10406;54.132;17.968;2022-09-09T15:00:39;16.70;99.90
20496;DHT22;10406;54.132;17.968;2022-09-09T15:06:11;16.40;99.90
20496;DHT22;10406;54.132;17.968;2022-09-09T15:11:39;16.20;99.90
20496;DHT22;10406;54.132;17.968;2022-09-09T15:17:00;15.90;99.90
20496;DHT22;10406;54.132;17.968;2022-09-09T15:22:25;15.80;99.90
20496;DHT22;10406;54.132;17.968;2022-09-09T15:27:47;15.80;99.90
20496;DHT22;10406;54.132;17.968;2022-09-09T15:33:13;15.80;99.90
20496;DHT22;10406;54.132;17.968;2022-09-09T15:38:38;16.00;99.90
20496;DHT22;10406;54.132;17.968;2022-09-09T15:44:01;16.10;99.90
20496;DHT22;10406;54.132;17.968;2022-09-09T15:49:28;16.20;99.90
20496;DHT22;10406;54.132;17.968;2022-09-09T15:55:02;15.90;99.90
20496;DHT22;10406;54.132;17.968;2022-09-09T16:00:24;15.70;99.90
20496;DHT22;10406;54.132;17.968;2022-09-09T16:05:52;15.50;99.90
20496;DHT22;10406;54.132;17.968;2022-09-09T16:11:25;15.40;99.90
20496;DHT22;10406;54.132;17.968;2022-09-09T16:17:03;15.20;99.90
20496;DHT22;10406;54.132;17.968;2022-09-09T16:22:30;15.00;99.90
20496;DHT22;10406;54.132;17.968;2022-09-09T16:28:06;14.90;99.90
20496;DHT22;10406;54.132;17.968;2022-09-09T16:33:33;14.90;99.90
20496;DHT22;10406;54.132;17.968;2022-09-09T16:39:01;14.20;99.90
20496;DHT22;10406;54.132;17.968;2022-09-09T16:44:35;14.80;99.90
20496;DHT22;10406;54.132;17.968;2022-09-09T16:50:04;14.80;99.90
20496;DHT22;10406;54.132;17.968;2022-09-09T16:55:27;14.70;99.90
20496;DHT22;10406;54.132;17.968;2022-09-09T17:07:21;14.70;99.90
20496;DHT22;10406;54.132;17.968;2022-09-09T17:12:43;14.60;99.90
20496;DHT22;10406;54.132;17.968;2022-09-09T17:18:09;14.50;99.90
20496;DHT22;10406;54.132;17.968;2022-09-09T17:23:59;14.50;99.90
20496;DHT22;10406;54.132;17.968;2022-09-09T17:29:32;14.60;99.90
20496;DHT22;10406;54.132;17.968;2022-09-09T17:34:58;14.50;99.90
20496;DHT22;10406;54.132;17.968;2022-09-09T17:40:35;14.50;99.90
20496;DHT22;10406;54.132;17.968;2022-09-09T17:52:02;14.60;99.90
20496;DHT22;10406;54.132;17.968;2022-09-09T17:57:27;14.50;99.90
20496;DHT22;10406;54.132;17.968;2022-09-09T18:03:22;14.50;99.90
20496;DHT22;10406;54.132;17.968;2022-09-09T18:08:48;14.50;99.90
20496;DHT22;10406;54.132;17.968;2022-09-09T18:14:13;14.50;99.90
20496;DHT22;10406;54.132;17.968;2022-09-09T18:19:36;14.50;99.90
20496;DHT22;10406;54.132;17.968;2022-09-09T18:24:57;14.50;99.90
20496;DHT22;10406;54.132;17.968;2022-09-09T18:30:19;14.40;99.90
20496;DHT22;10406;54.132;17.968;2022-09-09T18:35:43;14.50;99.90
20496;DHT22;10406;54.132;17.968;2022-09-09T18:41:16;14.50;99.90
20496;DHT22;10406;54.132;17.968;2022-09-09T18:46:39;14.40;99.90
20496;DHT22;10406;54.132;17.968;2022-09-09T18:52:00;14.50;99.90
20496;DHT22;10406;54.132;17.968;2022-09-09T18:57:22;14.50;99.90
20496;DHT22;10406;54.132;17.968;2022-09-09T19:08:45;14.50;99.90
20496;DHT22;10406;54.132;17.968;2022-09-09T19:14:10;14.50;99.90
20496;DHT22;10406;54.132;17.968;2022-09-09T19:19:39;14.60;99.90
20496;DHT22;10406;54.132;17.968;2022-09-09T19:25:08;14.50;99.90
20496;DHT22;10406;54.132;17.968;2022-09-09T19:30:34;14.60;99.90
20496;DHT22;10406;54.132;17.968;2022-09-09T19:36:12;14.60;99.90
20496;DHT22;10406;54.132;17.968;2022-09-09T19:41:35;14.60;99.90
20496;DHT22;10406;54.132;17.968;2022-09-09T19:46:56;14.50;99.90
20496;DHT22;10406;54.132;17.968;2022-09-09T19:53:25;14.60;99.90
20496;DHT22;10406;54.132;17.968;2022-09-09T19:58:51;14.50;99.90
20496;DHT22;10406;54.132;17.968;2022-09-09T20:04:13;14.50;99.90
20496;DHT22;10406;54.132;17.968;2022-09-09T20:09:47;14.50;99.90
20496;DHT22;10406;54.132;17.968;2022-09-09T20:15:35;14.50;99.90
20496;DHT22;10406;54.132;17.968;2022-09-09T20:21:09;14.50;99.90
20496;DHT22;10406;54.132;17.968;2022-09-09T20:26:54;14.50;99.90
20496;DHT22;10406;54.132;17.968;2022-09-09T20:32:56;14.50;99.90
20496;DHT22;10406;54.132;17.968;2022-09-09T20:38:42;14.50;99.90
20496;DHT22;10406;54.132;17.968;2022-09-09T20:44:11;14.60;99.90
20496;DHT22;10406;54.132;17.968;2022-09-09T20:49:55;14.60;99.90
20496;DHT22;10406;54.132;17.968;2022-09-09T21:03:01;14.40;99.90
20496;DHT22;10406;54.132;17.968;2022-09-09T21:08:30;14.30;99.90
20496;DHT22;10406;54.132;17.968;2022-09-09T21:13:52;14.40;99.90
20496;DHT22;10406;54.132;17.968;2022-09-09T21:19:15;14.40;99.90
20496;DHT22;10406;54.132;17.968;2022-09-09T21:24:40;14.40;99.90
20496;DHT22;10406;54.132;17.968;2022-09-09T21:36:32;14.30;99.90
20496;DHT22;10406;54.132;17.968;2022-09-09T21:42:01;14.30;99.90
20496;DHT22;10406;54.132;17.968;2022-09-09T21:47:26;14.20;99.90
20496;DHT22;10406;54.132;17.968;2022-09-09T21:59:58;14.30;99.90
20496;DHT22;10406;54.132;17.968;2022-09-09T22:12:29;14.00;99.90
20496;DHT22;10406;54.132;17.968;2022-09-09T22:17:52;13.90;99.90
20496;DHT22;10406;54.132;17.968;2022-09-09T22:23:41;13.80;99.90
20496;DHT22;10406;54.132;17.968;2022-09-09T22:29:03;13.80;99.90
20496;DHT22;10406;54.132;17.968;2022-09-09T22:35:03;13.80;99.90
20496;DHT22;10406;54.132;17.968;2022-09-09T22:47:29;13.80;99.90
20496;DHT22;10406;54.132;17.968;2022-09-09T22:53:22;13.70;99.90
20496;DHT22;10406;54.132;17.968;2022-09-09T23:05:54;13.90;99.90
20496;DHT22;10406;54.132;17.968;2022-09-09T23:32:42;13.80;99.90
20496;DHT22;10406;54.132;17.968;2022-09-09T23:38:44;13.80;99.90
20496;DHT22;10406;54.132;17.968;2022-09-09T23:44:17;13.70;99.90
20496;DHT22;10406;54.132;17.968;2022-09-09T23:56:51;13.70;99.90
